createdAt,value
2023-04-20T00:09:57.599Z,64.60
2023-04-20T00:30:02.004Z,64.80
2023-04-20T00:40:04.318Z,65.00
2023-04-20T00:50:07.278Z,65.20
2023-04-20T01:00:10.609Z,65.70
2023-04-20T01:10:12.359Z,65.40
2023-04-20T01:20:14.728Z,65.70
2023-04-20T01:30:17.299Z,66.50
2023-04-20T01:40:19.015Z,66.50
2023-04-20T01:50:20.721Z,66.60
2023-04-20T02:00:22.493Z,67.20
2023-04-20T02:10:24.177Z,67.30
2023-04-20T02:20:26.322Z,67.00
2023-04-20T02:30:28.004Z,67.20
2023-04-20T02:40:29.839Z,67.60
2023-04-20T02:50:31.621Z,67.90
2023-04-20T03:00:33.270Z,68.10
2023-04-20T03:10:35.030Z,68.20
2023-04-20T03:20:36.676Z,68.50
2023-04-20T03:30:38.332Z,68.70
2023-04-20T03:40:39.998Z,69.00
2023-04-20T03:50:41.674Z,69.40
2023-04-20T04:00:43.544Z,69.30
2023-04-20T04:20:47.388Z,70.00
2023-04-20T04:40:52.417Z,70.90
2023-04-20T04:50:54.112Z,71.30
2023-04-20T05:00:55.774Z,71.60
2023-04-20T05:10:57.746Z,71.50
2023-04-20T05:20:59.623Z,71.50
2023-04-20T05:31:01.756Z,72.30
2023-04-20T05:41:03.439Z,72.80
2023-04-20T05:51:05.324Z,73.00
2023-04-20T06:01:07.300Z,73.10
2023-04-20T06:11:08.943Z,73.00
2023-04-20T06:21:11.426Z,73.30
2023-04-20T06:31:13.179Z,73.30
2023-04-20T06:41:15.483Z,73.10
2023-04-20T06:51:17.344Z,71.30
2023-04-20T07:01:19.021Z,70.70
2023-04-20T07:11:20.858Z,70.00
2023-04-20T07:21:22.579Z,69.80
2023-04-20T07:31:24.263Z,70.10
2023-04-20T07:41:26.008Z,68.90
2023-04-20T08:01:32.239Z,67.80
2023-04-20T08:11:34.158Z,67.70
2023-04-20T08:21:39.830Z,66.40
2023-04-20T08:31:41.517Z,65.80
2023-04-20T08:41:43.334Z,66.40
2023-04-20T08:51:46.071Z,63.90
2023-04-20T09:01:47.865Z,62.90
2023-04-20T09:12:02.856Z,62.40
2023-04-20T09:22:06.514Z,60.80
2023-04-20T09:42:15.462Z,59.80
2023-04-20T09:52:18.685Z,58.90
2023-04-20T10:02:20.558Z,58.80
2023-04-20T10:12:22.334Z,58.70
2023-04-20T10:22:34.722Z,58.00
2023-04-20T10:32:36.467Z,56.60
2023-04-20T10:42:45.289Z,55.80
2023-04-20T10:52:47.140Z,54.70
2023-04-20T11:02:53.826Z,53.00
2023-04-20T11:12:55.708Z,51.90
2023-04-20T11:22:59.656Z,50.40
2023-04-20T11:33:01.411Z,49.30
2023-04-20T11:43:04.727Z,49.00
2023-04-20T11:53:07.346Z,49.10
2023-04-20T12:03:09.174Z,48.40
2023-04-20T12:13:11.197Z,47.90
2023-04-20T12:23:13.130Z,47.50
2023-04-20T12:33:14.870Z,47.20
2023-04-20T12:43:16.674Z,47.00
2023-04-20T12:53:19.557Z,49.00
2023-04-20T13:03:21.392Z,51.30
2023-04-20T13:13:23.171Z,53.20
2023-04-20T13:23:24.869Z,55.20
2023-04-20T13:33:26.839Z,56.10
2023-04-20T13:43:30.654Z,56.70
2023-04-20T13:53:32.322Z,57.60
2023-04-20T14:03:34.067Z,58.00
2023-04-20T14:13:37.467Z,58.50
2023-04-20T14:23:39.367Z,59.20
2023-04-20T14:33:41.658Z,59.90
2023-04-20T14:43:43.294Z,60.60
2023-04-20T14:53:44.957Z,60.90
2023-04-20T15:03:46.974Z,61.20
2023-04-20T15:13:49.446Z,61.20
2023-04-20T15:23:51.202Z,61.80
2023-04-20T15:33:52.934Z,61.40
2023-04-20T15:43:54.640Z,61.40
2023-04-20T15:53:56.500Z,61.70
2023-04-20T16:03:58.360Z,62.10
2023-04-20T16:14:00.400Z,62.70
2023-04-20T16:24:02.056Z,63.00
2023-04-20T16:34:04.320Z,63.50
2023-04-20T16:44:06.198Z,63.70
2023-04-20T16:54:09.230Z,64.20
2023-04-20T17:04:11.494Z,65.00
2023-04-20T17:14:13.218Z,66.70
2023-04-20T17:34:19.944Z,69.80
2023-04-20T17:44:21.770Z,70.50
2023-04-20T17:54:23.432Z,72.30
2023-04-20T18:04:25.657Z,73.50
2023-04-20T18:24:30.110Z,74.60
2023-04-20T18:44:34.323Z,77.50
2023-04-20T18:54:38.298Z,79.20
2023-04-20T19:04:40.064Z,80.30
2023-04-20T19:14:41.728Z,81.40
2023-04-20T19:24:44.634Z,82.00
2023-04-20T19:34:46.753Z,82.40
2023-04-20T19:44:48.881Z,82.50
2023-04-20T19:54:50.708Z,82.70
2023-04-20T20:04:54.224Z,84.30
2023-04-20T20:14:56.007Z,87.50
2023-04-20T20:24:57.744Z,89.80
2023-04-20T20:34:59.432Z,90.80
2023-04-20T20:45:01.274Z,91.80
2023-04-20T20:55:03.998Z,93.00
2023-04-20T21:05:06.422Z,94.10
2023-04-20T21:15:10.066Z,94.90
2023-04-20T21:25:11.733Z,95.10
2023-04-20T21:35:13.531Z,95.70
2023-04-20T21:45:15.280Z,96.30
2023-04-20T21:55:16.918Z,96.50
2023-04-20T22:15:22.309Z,97.00
2023-04-20T22:25:27.118Z,97.20
2023-04-20T22:35:28.845Z,97.50
2023-04-20T22:45:30.487Z,97.80
2023-04-20T22:55:32.129Z,98.10
2023-04-20T23:05:33.858Z,98.10
2023-04-20T23:15:35.506Z,98.30
2023-04-20T23:35:39.549Z,98.70
2023-04-20T23:45:41.280Z,99.00
2023-04-20T23:55:43.016Z,99.10
